Time;durP1;ratioP1;P1;durP2;ratioP2;P2;SDS_P1;SDS_P2;PMS_P1;PMS_P2;Temp;Humidity;BMP_temperature;BMP_pressure;BME280_temperature;BME280_humidity;BME280_pressure;Samples;Min_cycle;Max_cycle;Signal;HPM_P1;HPM_P2
2022/10/16 00:01:06;;;;;;;9.35;2.30;;;13.10;99.90;;;;;;5065666;28;20051;-69
2022/10/16 00:03:32;;;;;;;2.75;1.52;;;13.10;99.90;;;;;;5069029;28;20544;-69
2022/10/16 00:06:00;;;;;;;5.25;2.03;;;13.10;99.90;;;;;;5069931;28;20131;-69
2022/10/16 00:08:26;;;;;;;5.13;1.60;;;13.10;99.90;;;;;;5067330;28;20797;-69
2022/10/16 00:10:52;;;;;;;9.02;1.95;;;13.10;99.90;;;;;;5069847;28;20044;-69
2022/10/16 00:13:19;;;;;;;6.60;2.65;;;13.10;99.90;;;;;;5069719;28;20052;-68
2022/10/16 00:15:46;;;;;;;7.35;1.92;;;13.00;99.90;;;;;;5070000;28;20110;-69
2022/10/16 00:18:12;;;;;;;6.13;2.25;;;13.00;99.90;;;;;;5069264;28;20048;-69
2022/10/16 00:20:37;;;;;;;;;;;13.10;99.90;;;;;;5071413;28;20041;-69
2022/10/16 00:23:04;;;;;;;3.33;1.60;;;13.10;99.90;;;;;;5068774;28;19946;-72
2022/10/16 00:25:32;;;;;;;3.85;2.00;;;13.00;99.90;;;;;;5070592;28;20062;-69
2022/10/16 00:28:00;;;;;;;9.65;1.80;;;13.00;99.90;;;;;;5069882;28;20131;-69
2022/10/16 00:30:27;;;;;;;4.25;2.00;;;13.00;99.90;;;;;;5070536;28;20088;-69
2022/10/16 00:32:53;;;;;;;3.53;1.80;;;13.00;99.90;;;;;;5070476;28;20079;-70
2022/10/16 00:35:18;;;;;;;5.22;1.75;;;13.00;99.90;;;;;;5070156;28;20490;-69
2022/10/16 00:37:44;;;;;;;5.82;1.88;;;12.90;99.90;;;;;;5068805;28;20128;-70
2022/10/16 00:40:10;;;;;;;4.68;2.10;;;12.90;99.90;;;;;;5069923;28;20127;-71
2022/10/16 00:42:36;;;;;;;5.88;1.90;;;12.90;99.90;;;;;;5070778;28;20048;-70
2022/10/16 00:45:03;;;;;;;5.32;1.88;;;12.90;99.90;;;;;;5069518;28;20094;-69
2022/10/16 00:47:37;;;;;;;5.43;1.88;;;12.90;99.90;;;;;;5069684;28;20033;-69
2022/10/16 00:50:43;;;;;;;4.55;2.10;;;12.90;99.90;;;;;;5103426;28;20131;-68
2022/10/16 00:53:10;;;;;;;3.55;2.25;;;12.90;99.90;;;;;;5045294;28;20071;-72
2022/10/16 00:55:36;;;;;;;3.95;1.77;;;12.90;99.90;;;;;;5066030;28;20056;-69
2022/10/16 00:58:02;;;;;;;4.53;2.20;;;12.90;99.90;;;;;;5069878;28;20109;-69
2022/10/16 01:00:28;;;;;;;4.30;1.85;;;12.90;99.90;;;;;;5069805;28;20248;-68
2022/10/16 01:02:59;;;;;;;5.93;1.65;;;12.90;99.90;;;;;;5069006;28;20041;-70
2022/10/16 01:05:52;;;;;;;5.97;2.05;;;12.90;99.90;;;;;;5069860;28;20088;-69
2022/10/16 01:08:36;;;;;;;6.50;2.28;;;12.90;99.90;;;;;;5067522;28;20052;-69
2022/10/16 01:11:18;;;;;;;4.55;2.25;;;12.90;99.90;;;;;;5070600;28;20053;-69
2022/10/16 01:13:49;;;;;;;4.80;2.10;;;12.90;99.90;;;;;;5070569;28;20048;-71
2022/10/16 01:16:28;;;;;;;6.53;1.98;;;12.90;99.90;;;;;;5069869;28;20088;-69
2022/10/16 01:19:05;;;;;;;3.35;1.55;;;12.90;99.90;;;;;;5068878;28;20059;-69
2022/10/16 01:21:42;;;;;;;7.05;1.90;;;12.80;99.90;;;;;;5068787;28;20477;-69
2022/10/16 01:24:19;;;;;;;6.10;1.50;;;12.90;99.90;;;;;;5068299;28;20047;-72
2022/10/16 01:26:44;;;;;;;3.42;1.83;;;12.80;99.90;;;;;;5070353;28;20049;-69
2022/10/16 01:29:28;;;;;;;4.82;1.75;;;12.70;99.90;;;;;;5071708;28;20066;-72
2022/10/16 01:31:59;;;;;;;8.65;2.13;;;12.80;99.90;;;;;;5074412;28;20048;-69
2022/10/16 01:34:37;;;;;;;5.72;1.80;;;12.80;99.90;;;;;;5073094;28;20063;-69
2022/10/16 01:37:07;;;;;;;8.15;2.35;;;12.80;99.90;;;;;;5073553;28;20119;-73
2022/10/16 01:39:37;;;;;;;7.25;1.95;;;12.80;99.90;;;;;;5072377;28;20055;-70
2022/10/16 01:42:15;;;;;;;5.78;2.03;;;12.80;99.90;;;;;;5074187;28;20044;-69
2022/10/16 01:44:42;;;;;;;5.45;2.17;;;12.80;99.90;;;;;;5074166;28;20044;-69
2022/10/16 01:47:10;;;;;;;3.35;1.90;;;12.80;99.90;;;;;;5073615;28;20037;-69
2022/10/16 01:49:38;;;;;;;3.95;2.15;;;12.70;99.90;;;;;;5073338;28;20052;-68
2022/10/16 01:52:09;;;;;;;7.03;1.90;;;12.70;99.90;;;;;;5071456;28;20052;-72
2022/10/16 01:54:36;;;;;;;4.95;2.10;;;12.70;99.90;;;;;;5072278;28;20814;-71
2022/10/16 01:57:05;;;;;;;6.30;1.75;;;12.70;99.90;;;;;;5073831;28;20056;-71
2022/10/16 01:59:36;;;;;;;4.80;2.10;;;12.70;99.90;;;;;;5071966;28;20161;-69
2022/10/16 02:02:07;;;;;;;6.00;1.77;;;12.70;99.90;;;;;;5073043;28;20049;-71
2022/10/16 02:04:39;;;;;;;6.13;2.00;;;12.70;99.90;;;;;;5072952;28;20040;-69
2022/10/16 02:07:06;;;;;;;8.57;2.63;;;12.70;99.90;;;;;;5072153;28;20114;-72
2022/10/16 02:09:34;;;;;;;5.75;1.80;;;12.70;99.90;;;;;;5072052;28;20215;-70
2022/10/16 02:12:05;;;;;;;5.32;2.47;;;12.80;99.90;;;;;;5073610;28;20048;-70
2022/10/16 02:14:31;;;;;;;4.28;1.70;;;12.80;99.90;;;;;;5072937;28;20051;-69
2022/10/16 02:16:57;;;;;;;7.97;2.17;;;12.80;99.90;;;;;;5073426;28;20115;-69
2022/10/16 02:19:22;;;;;;;3.33;1.50;;;12.80;99.90;;;;;;5072317;28;20553;-69
2022/10/16 02:21:59;;;;;;;5.15;1.90;;;12.80;99.90;;;;;;5073326;28;20405;-70
2022/10/16 02:24:38;;;;;;;3.05;1.60;;;12.80;99.90;;;;;;5070893;28;20059;-69
2022/10/16 02:27:19;;;;;;;7.30;2.08;;;12.90;99.90;;;;;;5072724;28;20044;-71
2022/10/16 02:29:52;;;;;;;3.85;1.60;;;12.90;99.90;;;;;;5072977;28;20607;-70
2022/10/16 02:32:23;;;;;;;7.15;2.03;;;12.90;99.90;;;;;;5072308;28;20082;-72
2022/10/16 02:34:50;;;;;;;4.22;1.77;;;12.90;99.90;;;;;;5072091;28;20105;-69
2022/10/16 02:37:17;;;;;;;4.55;1.30;;;12.90;99.90;;;;;;5070846;28;20048;-72
2022/10/16 02:39:43;;;;;;;3.58;1.42;;;12.90;99.90;;;;;;5072160;28;20139;-70
2022/10/16 02:42:13;;;;;;;6.70;1.77;;;12.90;99.90;;;;;;5073134;28;20052;-69
2022/10/16 02:44:39;;;;;;;4.55;1.48;;;13.00;99.90;;;;;;5072429;28;20048;-70
2022/10/16 02:47:05;;;;;;;7.63;1.73;;;13.00;99.90;;;;;;5072537;28;20090;-69
2022/10/16 02:49:30;;;;;;;2.45;1.45;;;13.00;99.90;;;;;;5072532;28;20136;-70
2022/10/16 02:51:56;;;;;;;6.32;1.70;;;13.10;99.90;;;;;;5052861;28;20053;-69
2022/10/16 02:54:22;;;;;;;5.25;2.10;;;13.10;99.90;;;;;;5067601;28;20044;-69
2022/10/16 02:56:48;;;;;;;4.93;1.70;;;13.10;99.90;;;;;;5072214;28;20056;-71
2022/10/16 02:59:13;;;;;;;5.38;1.73;;;13.10;99.90;;;;;;5072727;28;20045;-69
2022/10/16 03:01:39;;;;;;;3.78;1.60;;;13.10;99.90;;;;;;5072226;28;20040;-69
2022/10/16 03:04:05;;;;;;;2.75;1.60;;;13.10;99.90;;;;;;5070976;28;20045;-69
2022/10/16 03:06:30;;;;;;;8.50;2.30;;;13.10;99.90;;;;;;5071936;28;20118;-69
2022/10/16 03:08:56;;;;;;;2.88;1.67;;;13.10;99.90;;;;;;5070353;28;20470;-69
2022/10/16 03:11:22;;;;;;;3.80;1.73;;;13.20;99.90;;;;;;5071883;28;20041;-72
2022/10/16 03:13:47;;;;;;;4.60;1.83;;;13.20;99.90;;;;;;5072512;28;20049;-70
2022/10/16 03:16:13;;;;;;;6.43;2.17;;;13.20;99.90;;;;;;5072016;28;20044;-72
2022/10/16 03:18:39;;;;;;;4.63;1.55;;;13.20;99.90;;;;;;5071113;28;20048;-69
2022/10/16 03:21:04;;;;;;;2.53;1.70;;;13.30;99.90;;;;;;5072033;28;20131;-69
2022/10/16 03:23:30;;;;;;;5.32;1.73;;;13.30;99.90;;;;;;5069498;28;20052;-69
2022/10/16 03:25:56;;;;;;;4.68;1.92;;;13.30;99.90;;;;;;5054346;28;20115;-69
2022/10/16 03:28:21;;;;;;;5.75;1.85;;;13.30;99.90;;;;;;5104139;28;20101;-72
2022/10/16 03:30:47;;;;;;;8.20;1.85;;;13.30;99.90;;;;;;5072092;28;20136;-69
2022/10/16 03:33:12;;;;;;;6.28;2.33;;;13.30;99.90;;;;;;5071568;28;20041;-70
2022/10/16 03:35:38;;;;;;;4.07;1.90;;;13.30;99.90;;;;;;5071168;28;20048;-68
2022/10/16 03:38:04;;;;;;;4.85;1.90;;;13.30;99.90;;;;;;5069757;28;20121;-69
2022/10/16 03:40:31;;;;;;;5.15;2.05;;;13.30;99.90;;;;;;5070430;28;20131;-69
2022/10/16 03:42:58;;;;;;;5.15;1.92;;;13.30;99.90;;;;;;5071836;28;20056;-68
2022/10/16 03:45:23;;;;;;;;;;;13.40;99.90;;;;;;5071820;28;20048;-72
2022/10/16 03:47:49;;;;;;;6.07;2.42;;;13.40;99.90;;;;;;5070825;28;19928;-69
2022/10/16 03:50:15;;;;;;;4.65;2.10;;;13.40;99.90;;;;;;5070445;28;20044;-69
2022/10/16 03:52:41;;;;;;;5.43;2.40;;;13.30;99.90;;;;;;5068432;28;20040;-69
2022/10/16 03:55:07;;;;;;;5.03;2.33;;;13.30;99.90;;;;;;5070298;28;20375;-69
2022/10/16 03:57:33;;;;;;;7.80;2.40;;;13.30;99.90;;;;;;5070835;28;20363;-69
2022/10/16 03:59:58;;;;;;;5.47;2.55;;;13.30;99.90;;;;;;5049981;28;20077;-69
2022/10/16 04:02:24;;;;;;;4.15;1.80;;;13.20;99.90;;;;;;5050781;28;20048;-73
2022/10/16 04:04:50;;;;;;;5.85;2.55;;;13.20;99.90;;;;;;5050062;28;20398;-69
2022/10/16 04:07:16;;;;;;;4.35;2.40;;;13.20;99.90;;;;;;5049257;28;20140;-72
2022/10/16 04:09:41;;;;;;;5.03;2.25;;;13.10;99.90;;;;;;5049430;28;20127;-69
2022/10/16 04:12:07;;;;;;;5.22;2.17;;;13.10;99.90;;;;;;5069267;28;20102;-69
2022/10/16 04:14:33;;;;;;;4.55;2.45;;;13.20;99.90;;;;;;5070639;28;20060;-70
2022/10/16 04:16:59;;;;;;;;;;;13.10;99.90;;;;;;5071588;28;20102;-72
2022/10/16 04:19:25;;;;;;;6.38;2.30;;;13.10;99.90;;;;;;5069509;28;19924;-72
2022/10/16 04:21:50;;;;;;;4.35;2.13;;;13.10;99.90;;;;;;5070015;28;20052;-69
2022/10/16 04:24:16;;;;;;;10.30;2.47;;;13.10;99.90;;;;;;5067608;28;20055;-69
2022/10/16 04:26:41;;;;;;;6.32;2.58;;;13.00;99.90;;;;;;5103114;28;20052;-69
2022/10/16 04:29:07;;;;;;;5.40;2.35;;;13.00;99.90;;;;;;5070886;28;20382;-69
2022/10/16 04:31:33;;;;;;;4.63;2.35;;;13.00;99.90;;;;;;5070477;28;20272;-69
2022/10/16 04:33:59;;;;;;;3.85;2.30;;;12.90;99.90;;;;;;5070357;28;20098;-71
2022/10/16 04:36:24;;;;;;;3.55;2.38;;;12.90;99.90;;;;;;5070891;28;20052;-68
2022/10/16 04:38:50;;;;;;;7.15;2.70;;;12.90;99.90;;;;;;5067905;28;20113;-69
2022/10/16 04:41:16;;;;;;;5.15;2.40;;;12.90;99.90;;;;;;5070873;28;20470;-69
2022/10/16 04:43:41;;;;;;;5.60;2.47;;;12.90;99.90;;;;;;5070140;28;20482;-71
2022/10/16 04:46:07;;;;;;;5.30;2.53;;;12.90;99.90;;;;;;5070777;28;20051;-69
2022/10/16 04:48:33;;;;;;;6.32;3.25;;;12.90;99.90;;;;;;5069064;28;20063;-69
2022/10/16 04:50:59;;;;;;;4.85;2.40;;;12.90;99.90;;;;;;5069404;28;20486;-69
2022/10/16 04:53:24;;;;;;;;;;;12.80;99.90;;;;;;5069213;28;20044;-69
2022/10/16 04:55:50;;;;;;;8.57;3.03;;;12.90;99.90;;;;;;5069822;28;20119;-69
2022/10/16 04:58:16;;;;;;;8.57;2.58;;;12.90;99.90;;;;;;5069316;28;20043;-69
2022/10/16 05:00:42;;;;;;;8.30;2.95;;;12.80;99.90;;;;;;5069473;28;20410;-69
2022/10/16 05:03:08;;;;;;;6.95;2.97;;;12.80;99.90;;;;;;5069348;28;20037;-70
2022/10/16 05:05:35;;;;;;;6.80;3.03;;;12.80;99.90;;;;;;5068259;28;20075;-70
2022/10/16 05:08:01;;;;;;;5.68;2.58;;;12.80;99.90;;;;;;5067367;28;20056;-69
2022/10/16 05:10:27;;;;;;;7.95;2.90;;;12.80;99.90;;;;;;5069698;28;20063;-69
2022/10/16 05:12:52;;;;;;;7.38;2.70;;;12.80;99.90;;;;;;5068942;28;20144;-69
2022/10/16 05:15:18;;;;;;;6.93;2.58;;;12.80;99.90;;;;;;5070654;28;20060;-69
2022/10/16 05:17:44;;;;;;;4.82;2.50;;;12.80;99.90;;;;;;5069514;28;20037;-69
2022/10/16 05:20:10;;;;;;;6.68;2.50;;;12.80;99.90;;;;;;5070048;28;20055;-68
2022/10/16 05:22:35;;;;;;;7.25;3.00;;;12.80;99.90;;;;;;5067886;28;20052;-72
2022/10/16 05:25:01;;;;;;;5.35;2.58;;;12.80;99.90;;;;;;5070232;28;20047;-69
2022/10/16 05:27:26;;;;;;;4.55;2.50;;;12.80;99.90;;;;;;5070124;28;20446;-69
2022/10/16 05:29:52;;;;;;;6.63;2.40;;;12.70;99.90;;;;;;5102640;28;20171;-68
2022/10/16 05:32:18;;;;;;;3.85;2.45;;;12.70;99.90;;;;;;5069322;28;20055;-68
2022/10/16 05:34:45;;;;;;;4.65;2.13;;;12.70;99.90;;;;;;5069591;28;20135;-68
2022/10/16 05:37:11;;;;;;;5.78;2.50;;;12.60;99.90;;;;;;5068558;28;20048;-69
2022/10/16 05:39:37;;;;;;;6.63;2.42;;;12.60;99.90;;;;;;5069280;28;20040;-72
2022/10/16 05:42:04;;;;;;;6.45;2.88;;;12.60;99.90;;;;;;5070267;28;20064;-72
2022/10/16 05:44:30;;;;;;;7.57;2.53;;;12.60;99.90;;;;;;5070225;28;20040;-69
2022/10/16 05:46:55;;;;;;;5.40;2.50;;;12.60;99.90;;;;;;5069406;28;20077;-69
2022/10/16 05:49:21;;;;;;;5.40;2.13;;;12.60;99.90;;;;;;5069564;28;20052;-70
2022/10/16 05:51:47;;;;;;;4.75;2.03;;;12.60;99.90;;;;;;5069517;28;20076;-69
2022/10/16 05:54:13;;;;;;;13.07;3.47;;;12.60;99.90;;;;;;5067930;28;20056;-71
2022/10/16 05:56:38;;;;;;;4.00;2.17;;;12.60;99.90;;;;;;5068982;28;20059;-72
2022/10/16 05:59:04;;;;;;;3.83;2.13;;;12.60;99.90;;;;;;5069856;28;20044;-69
2022/10/16 06:01:30;;;;;;;5.90;2.25;;;12.70;99.90;;;;;;5070116;28;20084;-69
2022/10/16 06:03:56;;;;;;;;;;;12.60;99.90;;;;;;5069220;28;20218;-69
2022/10/16 06:06:26;;;;;;;4.45;2.05;;;12.60;99.90;;;;;;5069695;28;19984;-69
2022/10/16 06:08:53;;;;;;;4.57;2.03;;;12.70;99.90;;;;;;5066872;28;20075;-69
2022/10/16 06:11:21;;;;;;;7.57;2.30;;;12.60;99.90;;;;;;5069958;28;20052;-69
2022/10/16 06:13:51;;;;;;;9.15;2.53;;;12.70;99.90;;;;;;5068079;28;20048;-69
2022/10/16 06:16:16;;;;;;;10.55;2.20;;;12.70;99.90;;;;;;5073449;28;20087;-69
2022/10/16 06:18:42;;;;;;;7.75;3.55;;;12.70;99.90;;;;;;5072410;28;20080;-69
2022/10/16 06:21:24;;;;;;;4.57;2.00;;;12.70;99.90;;;;;;5072959;28;20045;-71
2022/10/16 06:23:50;;;;;;;4.18;1.85;;;12.80;99.90;;;;;;5070700;28;20132;-69
2022/10/16 06:26:19;;;;;;;3.63;2.10;;;12.80;99.90;;;;;;5073374;28;20156;-69
2022/10/16 06:28:45;;;;;;;3.67;2.08;;;12.80;99.90;;;;;;5072363;28;20082;-69
2022/10/16 06:31:11;;;;;;;4.43;1.70;;;12.80;99.90;;;;;;5073365;28;20140;-69
2022/10/16 06:33:38;;;;;;;2.42;1.83;;;12.90;99.90;;;;;;5072524;28;20041;-73
2022/10/16 06:36:06;;;;;;;6.35;1.98;;;12.90;99.90;;;;;;5071316;28;20478;-70
2022/10/16 06:38:32;;;;;;;3.40;1.92;;;12.90;99.90;;;;;;5069861;28;20390;-68
2022/10/16 06:40:58;;;;;;;9.05;2.25;;;12.90;99.90;;;;;;5071215;28;20053;-69
2022/10/16 06:43:24;;;;;;;4.18;2.00;;;12.90;99.90;;;;;;5072610;28;20072;-69
2022/10/16 06:45:56;;;;;;;6.18;2.20;;;12.90;99.90;;;;;;5072470;28;20049;-69
2022/10/16 06:48:23;;;;;;;3.75;1.85;;;12.90;99.90;;;;;;5072355;28;20040;-69
2022/10/16 06:51:16;;;;;;;4.35;1.98;;;13.00;99.90;;;;;;5072158;28;20059;-69
2022/10/16 06:53:46;;;;;;;4.57;2.00;;;13.00;99.90;;;;;;5067225;28;20048;-72
2022/10/16 06:56:14;;;;;;;3.88;1.73;;;13.00;99.90;;;;;;5072794;28;20127;-69
2022/10/16 06:58:41;;;;;;;4.07;2.25;;;12.90;99.90;;;;;;5072376;28;20041;-72
2022/10/16 07:01:08;;;;;;;5.07;1.73;;;13.00;99.90;;;;;;5070737;28;20127;-70
2022/10/16 07:03:37;;;;;;;4.60;2.30;;;13.00;99.90;;;;;;5072223;28;20410;-71
2022/10/16 07:06:04;;;;;;;2.60;1.80;;;13.00;99.90;;;;;;5071167;28;20522;-69
2022/10/16 07:08:34;;;;;;;6.60;2.00;;;13.00;99.90;;;;;;5069844;28;20063;-69
2022/10/16 07:11:08;;;;;;;7.68;2.10;;;13.10;99.90;;;;;;5070577;28;20131;-68
2022/10/16 07:13:38;;;;;;;4.97;2.10;;;13.10;99.90;;;;;;5072610;28;20049;-70
2022/10/16 07:16:09;;;;;;;3.65;1.77;;;13.20;99.90;;;;;;5071801;28;20036;-68
2022/10/16 07:18:36;;;;;;;4.13;1.90;;;13.20;99.90;;;;;;5050790;28;20049;-73
2022/10/16 07:21:09;;;;;;;7.13;2.22;;;13.20;99.90;;;;;;5061772;28;20048;-71
2022/10/16 07:23:34;;;;;;;3.65;1.92;;;13.20;99.90;;;;;;5067847;28;20048;-73
2022/10/16 07:26:01;;;;;;;3.88;2.53;;;13.30;99.90;;;;;;5070533;28;20072;-72
2022/10/16 07:28:27;;;;;;;2.97;2.00;;;13.30;99.90;;;;;;5071943;28;20123;-68
2022/10/16 07:30:52;;;;;;;3.40;1.80;;;13.30;99.90;;;;;;5071706;28;20049;-76
2022/10/16 07:33:18;;;;;;;4.97;2.55;;;13.30;99.90;;;;;;5071621;28;20052;-72
2022/10/16 07:35:54;;;;;;;7.13;2.22;;;13.30;99.90;;;;;;5071395;28;20055;-74
2022/10/16 07:38:20;;;;;;;2.97;1.98;;;13.30;99.90;;;;;;5069709;28;20379;-72
2022/10/16 07:40:46;;;;;;;6.65;2.15;;;13.40;99.90;;;;;;5070128;28;20054;-74
2022/10/16 07:43:12;;;;;;;4.25;1.70;;;13.40;99.90;;;;;;5070339;28;20048;-70
2022/10/16 07:45:47;;;;;;;8.00;2.30;;;13.40;99.90;;;;;;5070698;28;20044;-69
2022/10/16 07:48:12;;;;;;;3.20;1.80;;;13.50;99.90;;;;;;5069638;28;20124;-71
2022/10/16 07:50:38;;;;;;;4.10;1.70;;;13.50;99.90;;;;;;5065254;28;20584;-69
2022/10/16 07:53:04;;;;;;;4.93;1.88;;;13.60;99.90;;;;;;5049107;28;20088;-71
2022/10/16 07:55:29;;;;;;;7.43;2.38;;;13.60;99.90;;;;;;5056382;28;20052;-69
2022/10/16 07:57:55;;;;;;;6.13;2.30;;;13.60;99.90;;;;;;5064983;28;20051;-69
2022/10/16 08:00:21;;;;;;;4.95;2.13;;;13.60;99.90;;;;;;5045310;28;20044;-70
2022/10/16 08:02:46;;;;;;;7.53;2.60;;;13.60;99.90;;;;;;5063501;28;20130;-72
2022/10/16 08:05:12;;;;;;;3.53;1.50;;;13.70;99.90;;;;;;5050191;28;20056;-70
2022/10/16 08:07:38;;;;;;;7.60;2.15;;;13.70;99.90;;;;;;5061184;28;20060;-69
2022/10/16 08:10:04;;;;;;;4.32;1.80;;;13.70;99.90;;;;;;5065135;28;20045;-71
2022/10/16 08:12:30;;;;;;;4.47;1.77;;;13.80;99.90;;;;;;5061411;28;20116;-71
2022/10/16 08:14:55;;;;;;;3.00;1.60;;;13.80;99.90;;;;;;5044101;28;20445;-71
2022/10/16 08:17:21;;;;;;;4.32;1.60;;;13.90;99.90;;;;;;5066364;28;20051;-71
2022/10/16 08:19:47;;;;;;;6.85;1.52;;;13.90;99.90;;;;;;5065478;28;20041;-71
2022/10/16 08:22:14;;;;;;;7.20;1.40;;;13.90;99.90;;;;;;5065407;28;20044;-70
2022/10/16 08:24:40;;;;;;;2.35;1.20;;;14.00;99.90;;;;;;5069784;28;20493;-72
2022/10/16 08:27:07;;;;;;;3.60;1.20;;;14.10;99.90;;;;;;5056359;28;20048;-70
2022/10/16 08:29:32;;;;;;;4.50;1.60;;;14.10;99.90;;;;;;5050688;28;20091;-71
2022/10/16 08:31:58;;;;;;;3.00;1.20;;;14.20;99.90;;;;;;5049855;28;20049;-70
2022/10/16 08:34:24;;;;;;;3.53;1.50;;;14.20;99.90;;;;;;5057895;28;20047;-70
2022/10/16 08:36:53;;;;;;;2.95;1.50;;;14.20;99.90;;;;;;5050231;28;20087;-74
2022/10/16 08:39:18;;;;;;;3.08;1.50;;;14.30;99.90;;;;;;5048268;28;20104;-70
2022/10/16 08:42:05;;;;;;;4.13;2.20;;;14.40;99.90;;;;;;5062484;28;20482;-72
2022/10/16 08:45:08;;;;;;;4.03;1.80;;;14.40;99.90;;;;;;5079950;28;20627;-69
2022/10/16 08:48:04;;;;;;;5.05;1.40;;;14.50;99.90;;;;;;5049587;28;20497;-73
2022/10/16 08:50:31;;;;;;;4.57;2.00;;;14.60;99.90;;;;;;5050300;28;20053;-70
2022/10/16 08:52:58;;;;;;;6.40;1.90;;;14.60;99.90;;;;;;5047792;28;20080;-71
2022/10/16 08:55:46;;;;;;;5.15;1.75;;;14.60;99.90;;;;;;5050293;28;20080;-71
2022/10/16 08:58:14;;;;;;;7.60;1.60;;;14.70;99.90;;;;;;5057333;28;20040;-70
2022/10/16 09:00:41;;;;;;;5.38;1.63;;;14.70;99.90;;;;;;5061743;28;20132;-70
2022/10/16 09:03:49;;;;;;;1.90;1.23;;;14.80;99.90;;;;;;5068640;28;20052;-70
2022/10/16 09:06:23;;;;;;;3.42;1.90;;;14.70;99.90;;;;;;5050665;28;20079;-70
2022/10/16 09:09:13;;;;;;;4.30;1.70;;;14.70;99.90;;;;;;5047710;28;20041;-70
2022/10/16 09:12:10;;;;;;;4.65;1.70;;;14.70;99.90;;;;;;5058708;28;20080;-71
2022/10/16 09:14:52;;;;;;;4.78;1.50;;;14.70;99.90;;;;;;5058715;28;20047;-72
2022/10/16 09:17:55;;;;;;;4.13;1.42;;;14.70;99.90;;;;;;5048992;28;20407;-71
2022/10/16 09:20:27;;;;;;;1.80;1.27;;;14.70;99.90;;;;;;5065046;28;20558;-70
2022/10/16 09:23:05;;;;;;;3.67;1.30;;;14.80;99.90;;;;;;5052573;28;20053;-70
2022/10/16 09:25:32;;;;;;;3.30;1.25;;;14.80;99.90;;;;;;5090011;28;20512;-70
2022/10/16 09:27:57;;;;;;;4.03;1.42;;;14.90;99.90;;;;;;5054606;28;20063;-77
2022/10/16 09:30:29;;;;;;;4.40;1.55;;;14.90;99.90;;;;;;5050097;28;20486;-72
2022/10/16 09:32:57;;;;;;;3.00;1.40;;;15.00;99.90;;;;;;5049663;28;20056;-75
2022/10/16 09:35:31;;;;;;;7.75;1.50;;;15.10;99.90;;;;;;5064135;28;20040;-71
2022/10/16 09:37:57;;;;;;;7.13;1.50;;;15.10;99.90;;;;;;5048213;28;20041;-78
2022/10/16 09:40:31;;;;;;;3.50;1.35;;;15.20;99.90;;;;;;5069924;28;20043;-70
2022/10/16 09:43:21;;;;;;;3.75;1.35;;;15.30;99.90;;;;;;5070189;28;20045;-75
2022/10/16 09:46:14;;;;;;;6.47;1.73;;;15.30;99.90;;;;;;5063312;28;20507;-69
2022/10/16 09:48:46;;;;;;;6.07;2.85;;;15.40;99.90;;;;;;5060661;28;20405;-69
2022/10/16 09:51:22;;;;;;;4.82;1.20;;;15.50;99.90;;;;;;5067526;28;20053;-70
2022/10/16 09:53:48;;;;;;;4.78;1.65;;;15.50;99.90;;;;;;5070755;28;20545;-69
2022/10/16 09:56:26;;;;;;;2.17;0.98;;;15.50;99.90;;;;;;5072856;28;20447;-72
2022/10/16 09:58:57;;;;;;;4.82;1.27;;;15.60;99.90;;;;;;5072465;28;20504;-70
2022/10/16 10:01:40;;;;;;;9.73;1.25;;;15.70;99.90;;;;;;5076680;28;20048;-69
2022/10/16 10:04:07;;;;;;;4.00;1.00;;;15.70;99.90;;;;;;5066305;28;20402;-69
2022/10/16 10:06:38;;;;;;;7.45;1.38;;;15.70;99.90;;;;;;5052828;28;20076;-72
2022/10/16 10:09:22;;;;;;;5.97;1.02;;;15.80;99.90;;;;;;5050637;28;20053;-74
2022/10/16 10:11:50;;;;;;;3.30;1.40;;;15.80;99.90;;;;;;5067889;28;20084;-70
2022/10/16 10:14:37;;;;;;;9.32;1.40;;;15.90;99.90;;;;;;5057169;28;20585;-71
2022/10/16 10:17:23;;;;;;;4.40;1.58;;;15.90;99.90;;;;;;5095785;28;20122;-76
2022/10/16 10:20:00;;;;;;;3.53;1.17;;;15.90;99.90;;;;;;5054190;28;20049;-71
2022/10/16 10:22:29;;;;;;;6.82;1.75;;;16.00;99.90;;;;;;5051070;28;20041;-70
2022/10/16 10:25:12;;;;;;;5.20;1.30;;;16.00;99.90;;;;;;5052912;28;20047;-74
2022/10/16 10:28:02;;;;;;;3.97;1.40;;;16.10;99.90;;;;;;5053206;28;20094;-74
2022/10/16 10:30:52;;;;;;;8.60;1.35;;;16.10;99.90;;;;;;5068153;28;20041;-76
2022/10/16 10:33:37;;;;;;;6.47;1.27;;;16.20;99.90;;;;;;5068927;28;20155;-74
2022/10/16 10:36:28;;;;;;;6.40;1.88;;;16.30;99.90;;;;;;5071130;28;20116;-78
2022/10/16 10:38:59;;;;;;;5.30;1.55;;;16.40;99.90;;;;;;5067405;28;20565;-73
2022/10/16 10:41:53;;;;;;;8.05;1.23;;;16.60;99.90;;;;;;5070656;28;20626;-70
2022/10/16 10:44:36;;;;;;;4.22;1.20;;;16.70;99.90;;;;;;5070171;28;20053;-70
2022/10/16 10:47:21;;;;;;;6.13;1.58;;;16.90;99.90;;;;;;5069090;28;20044;-71
2022/10/16 10:50:21;;;;;;;4.75;1.60;;;17.10;99.90;;;;;;5068799;28;20044;-72
2022/10/16 10:52:58;;;;;;;4.20;1.45;;;17.10;99.90;;;;;;5069258;28;20056;-68
2022/10/16 10:55:28;;;;;;;;;;;17.20;99.90;;;;;;5072214;28;20050;-69
2022/10/16 10:57:57;;;;;;;2.70;1.35;;;17.10;99.90;;;;;;5067033;28;19960;-71
2022/10/16 11:00:43;;;;;;;5.05;1.30;;;17.20;99.90;;;;;;5051565;28;20656;-69
2022/10/16 11:03:42;;;;;;;4.05;1.23;;;17.50;99.90;;;;;;5051544;28;20449;-75
2022/10/16 11:06:10;;;;;;;7.18;1.88;;;17.80;99.90;;;;;;5051644;28;20494;-71
2022/10/16 11:08:46;;;;;;;5.18;1.50;;;17.90;99.90;;;;;;5058718;28;20128;-71
2022/10/16 11:11:27;;;;;;;8.57;2.35;;;18.00;99.90;;;;;;5062042;28;20040;-67
2022/10/16 11:14:33;;;;;;;5.13;1.33;;;18.10;99.90;;;;;;5071759;28;20048;-70
2022/10/16 11:17:02;;;;;;;13.77;1.70;;;18.30;99.90;;;;;;5029114;28;20139;-68
2022/10/16 11:19:46;;;;;;;6.32;1.30;;;18.60;99.90;;;;;;5066982;28;20047;-68
2022/10/16 11:22:21;;;;;;;6.93;1.42;;;18.60;99.90;;;;;;5070844;28;20048;-71
2022/10/16 11:25:02;;;;;;;5.00;1.20;;;18.60;99.90;;;;;;5072123;28;20079;-68
2022/10/16 11:27:45;;;;;;;6.25;1.30;;;18.40;99.90;;;;;;5071854;28;20499;-69
2022/10/16 11:30:24;;;;;;;6.50;1.48;;;18.50;99.90;;;;;;5070948;28;20174;-72
2022/10/16 11:33:04;;;;;;;7.88;1.83;;;18.60;99.90;;;;;;5070161;28;20116;-68
2022/10/16 11:35:43;;;;;;;4.03;1.20;;;19.00;99.90;;;;;;5070323;28;20056;-68
2022/10/16 11:38:28;;;;;;;5.03;1.02;;;19.60;99.90;;;;;;5069494;28;20078;-71
2022/10/16 11:41:00;;;;;;;5.40;1.33;;;19.80;99.90;;;;;;5071870;28;20128;-70
2022/10/16 11:43:34;;;;;;;6.03;1.45;;;19.50;99.90;;;;;;5071398;28;20048;-68
2022/10/16 11:46:10;;;;;;;8.00;1.45;;;19.20;99.90;;;;;;5072044;28;20045;-69
2022/10/16 11:48:45;;;;;;;;;;;18.80;99.90;;;;;;5071411;28;20063;-70
2022/10/16 11:51:16;;;;;;;7.20;1.27;;;18.40;98.50;;;;;;5070385;28;19925;-72
2022/10/16 11:53:50;;;;;;;8.73;1.60;;;18.30;99.90;;;;;;5069383;28;20465;-69
2022/10/16 11:56:18;;;;;;;6.22;1.90;;;18.80;99.90;;;;;;5069799;28;20054;-70
2022/10/16 11:58:59;;;;;;;8.60;1.70;;;19.30;99.90;;;;;;5071212;28;20652;-68
2022/10/16 12:01:52;;;;;;;5.28;1.15;;;19.70;99.90;;;;;;5070687;28;20420;-68
2022/10/16 12:04:27;;;;;;;7.13;1.20;;;20.50;99.90;;;;;;5070340;28;20044;-68
2022/10/16 12:06:58;;;;;;;9.68;1.85;;;21.30;96.70;;;;;;5069999;28;20056;-70
2022/10/16 12:09:29;;;;;;;6.57;1.30;;;21.80;97.00;;;;;;5067140;28;20127;-66
2022/10/16 12:11:55;;;;;;;4.40;1.25;;;22.30;95.00;;;;;;5070771;28;20110;-67
2022/10/16 12:14:37;;;;;;;8.45;1.48;;;22.40;94.80;;;;;;5068712;28;20048;-66
2022/10/16 12:17:23;;;;;;;5.28;1.10;;;22.50;88.70;;;;;;5068522;28;20055;-74
2022/10/16 12:20:22;;;;;;;3.37;1.03;;;22.60;84.70;;;;;;5071041;28;20417;-72
2022/10/16 12:22:55;;;;;;;9.93;1.75;;;22.20;76.90;;;;;;5060681;28;20298;-72
2022/10/16 12:25:28;;;;;;;7.35;1.30;;;21.90;87.10;;;;;;5070259;28;20041;-72
2022/10/16 12:28:01;;;;;;;4.30;1.23;;;22.00;83.10;;;;;;5070840;28;20037;-74
2022/10/16 12:30:30;;;;;;;7.35;1.73;;;22.10;85.60;;;;;;5069514;28;20052;-71
2022/10/16 12:33:19;;;;;;;6.47;1.23;;;22.00;82.60;;;;;;5069421;28;20040;-73
2022/10/16 12:35:45;;;;;;;4.68;1.13;;;22.00;81.20;;;;;;5070476;28;20044;-70
2022/10/16 12:38:19;;;;;;;4.78;1.27;;;22.00;82.20;;;;;;5067605;28;20087;-71
2022/10/16 12:41:10;;;;;;;5.47;1.10;;;22.10;82.40;;;;;;5069655;28;20060;-70
2022/10/16 12:43:39;;;;;;;7.43;1.13;;;22.20;81.80;;;;;;5070408;28;20052;-71
2022/10/16 12:46:23;;;;;;;7.68;1.60;;;22.10;76.30;;;;;;5070803;28;20059;-71
2022/10/16 12:48:50;;;;;;;3.95;1.08;;;22.10;70.30;;;;;;5070137;28;20123;-71
2022/10/16 12:51:35;;;;;;;3.05;1.10;;;22.10;76.20;;;;;;5070439;28;20559;-73
2022/10/16 12:54:06;;;;;;;3.67;1.08;;;22.00;68.60;;;;;;5068617;28;20045;-70
2022/10/16 12:56:35;;;;;;;4.47;0.95;;;21.80;73.70;;;;;;5101855;28;20119;-72
2022/10/16 12:59:29;;;;;;;4.63;1.30;;;21.70;71.70;;;;;;5067651;28;20123;-71
2022/10/16 13:02:32;;;;;;;4.18;1.48;;;21.60;72.20;;;;;;5070655;28;20052;-72
2022/10/16 13:05:10;;;;;;;3.70;0.95;;;21.80;69.40;;;;;;5069274;28;20045;-71
2022/10/16 13:07:44;;;;;;;4.93;1.10;;;22.00;72.80;;;;;;5067186;28;20519;-71
2022/10/16 13:10:28;;;;;;;4.32;0.98;;;22.00;73.30;;;;;;5069828;28;20048;-68